sensor_id;sensor_type;location;lat;lon;timestamp;P1;durP1;ratioP1;P2;durP2;ratioP2
18651;SDS011;9455;54.302;10.124;2023-07-31T00:02:16;1.43;;;0.70;;
18651;SDS011;9455;54.302;10.124;2023-07-31T00:04:43;1.13;;;0.90;;
18651;SDS011;9455;54.302;10.124;2023-07-31T00:07:10;2.80;;;0.90;;
18651;SDS011;9455;54.302;10.124;2023-07-31T00:09:38;1.70;;;0.90;;
18651;SDS011;9455;54.302;10.124;2023-07-31T00:12:04;2.27;;;0.53;;
18651;SDS011;9455;54.302;10.124;2023-07-31T00:14:31;0.83;;;0.50;;
18651;SDS011;9455;54.302;10.124;2023-07-31T00:16:58;1.80;;;1.10;;
18651;SDS011;9455;54.302;10.124;2023-07-31T00:19:24;4.37;;;1.07;;
18651;SDS011;9455;54.302;10.124;2023-07-31T00:21:51;0.80;;;0.80;;
18651;SDS011;9455;54.302;10.124;2023-07-31T00:24:18;4.43;;;0.90;;
18651;SDS011;9455;54.302;10.124;2023-07-31T00:26:45;2.57;;;0.87;;
18651;SDS011;9455;54.302;10.124;2023-07-31T00:29:12;4.23;;;1.23;;
18651;SDS011;9455;54.302;10.124;2023-07-31T00:31:39;3.90;;;1.30;;
18651;SDS011;9455;54.302;10.124;2023-07-31T00:34:05;4.07;;;1.07;;
18651;SDS011;9455;54.302;10.124;2023-07-31T00:36:32;4.33;;;1.13;;
18651;SDS011;9455;54.302;10.124;2023-07-31T00:38:59;3.50;;;1.27;;
18651;SDS011;9455;54.302;10.124;2023-07-31T00:41:25;3.37;;;1.23;;
18651;SDS011;9455;54.302;10.124;2023-07-31T00:43:53;2.17;;;1.20;;
18651;SDS011;9455;54.302;10.124;2023-07-31T00:46:20;1.70;;;1.00;;
18651;SDS011;9455;54.302;10.124;2023-07-31T00:48:47;5.67;;;0.97;;
18651;SDS011;9455;54.302;10.124;2023-07-31T00:51:14;1.40;;;0.90;;
18651;SDS011;9455;54.302;10.124;2023-07-31T00:53:41;2.43;;;0.83;;
18651;SDS011;9455;54.302;10.124;2023-07-31T00:56:09;3.03;;;1.07;;
18651;SDS011;9455;54.302;10.124;2023-07-31T00:58:37;2.87;;;1.07;;
18651;SDS011;9455;54.302;10.124;2023-07-31T01:01:05;5.10;;;1.07;;
18651;SDS011;9455;54.302;10.124;2023-07-31T01:03:31;1.80;;;0.73;;
18651;SDS011;9455;54.302;10.124;2023-07-31T01:06:01;1.43;;;1.03;;
18651;SDS011;9455;54.302;10.124;2023-07-31T01:08:40;4.17;;;1.03;;
18651;SDS011;9455;54.302;10.124;2023-07-31T01:11:11;3.20;;;0.90;;
18651;SDS011;9455;54.302;10.124;2023-07-31T01:13:44;0.87;;;0.70;;
18651;SDS011;9455;54.302;10.124;2023-07-31T01:16:12;1.70;;;0.80;;
18651;SDS011;9455;54.302;10.124;2023-07-31T01:18:38;1.97;;;0.70;;
18651;SDS011;9455;54.302;10.124;2023-07-31T01:21:07;1.93;;;1.10;;
18651;SDS011;9455;54.302;10.124;2023-07-31T01:23:53;1.77;;;0.70;;
18651;SDS011;9455;54.302;10.124;2023-07-31T01:26:33;0.73;;;0.73;;
18651;SDS011;9455;54.302;10.124;2023-07-31T01:29:03;0.70;;;0.60;;
18651;SDS011;9455;54.302;10.124;2023-07-31T01:31:35;0.90;;;0.80;;
18651;SDS011;9455;54.302;10.124;2023-07-31T01:34:04;0.80;;;0.80;;
18651;SDS011;9455;54.302;10.124;2023-07-31T01:36:32;0.70;;;0.70;;
18651;SDS011;9455;54.302;10.124;2023-07-31T01:38:58;1.10;;;0.87;;
18651;SDS011;9455;54.302;10.124;2023-07-31T01:41:25;3.70;;;0.60;;
18651;SDS011;9455;54.302;10.124;2023-07-31T01:43:53;1.50;;;0.50;;
18651;SDS011;9455;54.302;10.124;2023-07-31T01:46:20;4.37;;;0.83;;
18651;SDS011;9455;54.302;10.124;2023-07-31T01:48:47;2.53;;;0.50;;
18651;SDS011;9455;54.302;10.124;2023-07-31T01:51:14;0.40;;;0.40;;
18651;SDS011;9455;54.302;10.124;2023-07-31T01:53:41;0.40;;;0.40;;
18651;SDS011;9455;54.302;10.124;2023-07-31T01:56:07;0.77;;;0.60;;
18651;SDS011;9455;54.302;10.124;2023-07-31T01:58:34;0.60;;;0.60;;
18651;SDS011;9455;54.302;10.124;2023-07-31T02:01:02;0.53;;;0.53;;
18651;SDS011;9455;54.302;10.124;2023-07-31T02:03:29;2.10;;;0.70;;
18651;SDS011;9455;54.302;10.124;2023-07-31T02:05:55;0.97;;;0.60;;
18651;SDS011;9455;54.302;10.124;2023-07-31T02:08:22;1.00;;;0.73;;
18651;SDS011;9455;54.302;10.124;2023-07-31T02:10:48;3.97;;;0.90;;
18651;SDS011;9455;54.302;10.124;2023-07-31T02:13:15;5.47;;;1.33;;
18651;SDS011;9455;54.302;10.124;2023-07-31T02:15:41;0.83;;;0.70;;
18651;SDS011;9455;54.302;10.124;2023-07-31T02:18:09;1.93;;;0.80;;
18651;SDS011;9455;54.302;10.124;2023-07-31T02:20:36;2.77;;;0.93;;
18651;SDS011;9455;54.302;10.124;2023-07-31T02:23:02;6.90;;;0.70;;
18651;SDS011;9455;54.302;10.124;2023-07-31T02:25:29;4.47;;;1.20;;
18651;SDS011;9455;54.302;10.124;2023-07-31T02:27:56;0.83;;;0.83;;
18651;SDS011;9455;54.302;10.124;2023-07-31T02:30:22;0.70;;;0.70;;
18651;SDS011;9455;54.302;10.124;2023-07-31T02:32:49;1.13;;;1.03;;
18651;SDS011;9455;54.302;10.124;2023-07-31T02:35:17;3.87;;;0.87;;
18651;SDS011;9455;54.302;10.124;2023-07-31T02:37:44;5.43;;;1.00;;
18651;SDS011;9455;54.302;10.124;2023-07-31T02:40:11;2.53;;;1.10;;
18651;SDS011;9455;54.302;10.124;2023-07-31T02:42:38;2.83;;;1.03;;
18651;SDS011;9455;54.302;10.124;2023-07-31T02:45:05;3.97;;;1.20;;
18651;SDS011;9455;54.302;10.124;2023-07-31T02:47:32;1.77;;;0.93;;
18651;SDS011;9455;54.302;10.124;2023-07-31T02:49:59;3.10;;;1.00;;
18651;SDS011;9455;54.302;10.124;2023-07-31T02:52:27;2.87;;;1.10;;
18651;SDS011;9455;54.302;10.124;2023-07-31T02:54:53;1.17;;;1.17;;
18651;SDS011;9455;54.302;10.124;2023-07-31T02:57:20;2.10;;;1.70;;
18651;SDS011;9455;54.302;10.124;2023-07-31T02:59:46;3.50;;;1.50;;
18651;SDS011;9455;54.302;10.124;2023-07-31T03:02:13;4.80;;;1.87;;
18651;SDS011;9455;54.302;10.124;2023-07-31T03:04:40;9.33;;;2.33;;
18651;SDS011;9455;54.302;10.124;2023-07-31T03:07:06;1.37;;;1.37;;
18651;SDS011;9455;54.302;10.124;2023-07-31T03:09:34;3.20;;;1.43;;
18651;SDS011;9455;54.302;10.124;2023-07-31T03:12:01;1.93;;;1.43;;
18651;SDS011;9455;54.302;10.124;2023-07-31T03:14:28;5.30;;;1.93;;
18651;SDS011;9455;54.302;10.124;2023-07-31T03:16:55;2.03;;;1.37;;
18651;SDS011;9455;54.302;10.124;2023-07-31T03:19:21;2.40;;;1.67;;
18651;SDS011;9455;54.302;10.124;2023-07-31T03:21:48;4.00;;;1.30;;
18651;SDS011;9455;54.302;10.124;2023-07-31T03:24:14;5.77;;;1.80;;
18651;SDS011;9455;54.302;10.124;2023-07-31T03:26:42;1.93;;;1.57;;
18651;SDS011;9455;54.302;10.124;2023-07-31T03:29:09;3.13;;;1.87;;
18651;SDS011;9455;54.302;10.124;2023-07-31T03:31:35;3.40;;;2.10;;
18651;SDS011;9455;54.302;10.124;2023-07-31T03:34:02;9.03;;;2.20;;
18651;SDS011;9455;54.302;10.124;2023-07-31T03:36:29;8.43;;;2.27;;
18651;SDS011;9455;54.302;10.124;2023-07-31T03:38:55;3.37;;;1.80;;
18651;SDS011;9455;54.302;10.124;2023-07-31T03:41:22;9.70;;;2.10;;
18651;SDS011;9455;54.302;10.124;2023-07-31T03:43:51;3.57;;;1.63;;
18651;SDS011;9455;54.302;10.124;2023-07-31T03:46:18;4.77;;;2.13;;
18651;SDS011;9455;54.302;10.124;2023-07-31T03:48:44;4.93;;;2.27;;
18651;SDS011;9455;54.302;10.124;2023-07-31T03:51:11;2.13;;;2.03;;
18651;SDS011;9455;54.302;10.124;2023-07-31T03:53:37;9.67;;;2.53;;
18651;SDS011;9455;54.302;10.124;2023-07-31T03:56:04;6.73;;;1.97;;
18651;SDS011;9455;54.302;10.124;2023-07-31T03:58:31;5.40;;;2.53;;
18651;SDS011;9455;54.302;10.124;2023-07-31T04:00:59;7.13;;;2.37;;
18651;SDS011;9455;54.302;10.124;2023-07-31T04:03:25;4.63;;;2.77;;
18651;SDS011;9455;54.302;10.124;2023-07-31T04:05:53;10.27;;;2.67;;
18651;SDS011;9455;54.302;10.124;2023-07-31T04:08:20;7.83;;;2.27;;
18651;SDS011;9455;54.302;10.124;2023-07-31T04:10:47;5.17;;;2.10;;
18651;SDS011;9455;54.302;10.124;2023-07-31T04:13:14;5.27;;;2.67;;
18651;SDS011;9455;54.302;10.124;2023-07-31T04:15:41;5.80;;;3.37;;
18651;SDS011;9455;54.302;10.124;2023-07-31T04:18:09;3.77;;;2.77;;
18651;SDS011;9455;54.302;10.124;2023-07-31T04:20:35;11.20;;;3.10;;
18651;SDS011;9455;54.302;10.124;2023-07-31T04:23:02;3.40;;;3.03;;
18651;SDS011;9455;54.302;10.124;2023-07-31T04:25:29;5.03;;;2.80;;
18651;SDS011;9455;54.302;10.124;2023-07-31T04:27:56;12.63;;;3.30;;
18651;SDS011;9455;54.302;10.124;2023-07-31T04:30:24;6.53;;;3.03;;
18651;SDS011;9455;54.302;10.124;2023-07-31T04:32:50;11.57;;;2.80;;
18651;SDS011;9455;54.302;10.124;2023-07-31T04:35:18;6.97;;;3.37;;
18651;SDS011;9455;54.302;10.124;2023-07-31T04:37:45;13.90;;;3.83;;
18651;SDS011;9455;54.302;10.124;2023-07-31T04:40:13;5.90;;;2.93;;
18651;SDS011;9455;54.302;10.124;2023-07-31T04:42:40;5.00;;;3.00;;
18651;SDS011;9455;54.302;10.124;2023-07-31T04:45:08;7.30;;;3.13;;
18651;SDS011;9455;54.302;10.124;2023-07-31T04:47:35;3.33;;;2.43;;
18651;SDS011;9455;54.302;10.124;2023-07-31T04:50:02;5.53;;;3.20;;
18651;SDS011;9455;54.302;10.124;2023-07-31T04:52:30;6.47;;;3.17;;
18651;SDS011;9455;54.302;10.124;2023-07-31T04:54:56;37.50;;;12.50;;
18651;SDS011;9455;54.302;10.124;2023-07-31T04:57:23;8.47;;;4.43;;
18651;SDS011;9455;54.302;10.124;2023-07-31T04:59:50;4.90;;;3.60;;
18651;SDS011;9455;54.302;10.124;2023-07-31T05:02:16;3.63;;;2.90;;
18651;SDS011;9455;54.302;10.124;2023-07-31T05:04:43;5.90;;;3.27;;
18651;SDS011;9455;54.302;10.124;2023-07-31T05:07:09;6.37;;;2.53;;
18651;SDS011;9455;54.302;10.124;2023-07-31T05:09:37;3.50;;;2.80;;
18651;SDS011;9455;54.302;10.124;2023-07-31T05:12:05;4.40;;;2.77;;
18651;SDS011;9455;54.302;10.124;2023-07-31T05:14:32;9.23;;;3.10;;
18651;SDS011;9455;54.302;10.124;2023-07-31T05:16:58;8.23;;;3.40;;
18651;SDS011;9455;54.302;10.124;2023-07-31T05:19:25;5.87;;;3.50;;
18651;SDS011;9455;54.302;10.124;2023-07-31T05:21:51;3.70;;;3.07;;
18651;SDS011;9455;54.302;10.124;2023-07-31T05:24:18;4.97;;;2.90;;
18651;SDS011;9455;54.302;10.124;2023-07-31T05:26:46;10.77;;;3.20;;
18651;SDS011;9455;54.302;10.124;2023-07-31T05:29:13;8.93;;;2.73;;
18651;SDS011;9455;54.302;10.124;2023-07-31T05:31:39;7.20;;;3.63;;
18651;SDS011;9455;54.302;10.124;2023-07-31T05:34:06;11.80;;;3.70;;
18651;SDS011;9455;54.302;10.124;2023-07-31T05:36:32;6.90;;;4.60;;
18651;SDS011;9455;54.302;10.124;2023-07-31T05:38:59;7.00;;;3.30;;
18651;SDS011;9455;54.302;10.124;2023-07-31T05:41:31;4.97;;;3.27;;
18651;SDS011;9455;54.302;10.124;2023-07-31T05:43:59;3.27;;;2.97;;
18651;SDS011;9455;54.302;10.124;2023-07-31T05:46:25;8.60;;;3.80;;
18651;SDS011;9455;54.302;10.124;2023-07-31T05:48:52;4.63;;;3.00;;
18651;SDS011;9455;54.302;10.124;2023-07-31T05:51:18;6.27;;;3.43;;
18651;SDS011;9455;54.302;10.124;2023-07-31T05:53:45;8.53;;;3.60;;
18651;SDS011;9455;54.302;10.124;2023-07-31T05:56:12;13.10;;;3.83;;
18651;SDS011;9455;54.302;10.124;2023-07-31T05:58:38;5.77;;;3.90;;
18651;SDS011;9455;54.302;10.124;2023-07-31T06:01:06;3.60;;;3.30;;
18651;SDS011;9455;54.302;10.124;2023-07-31T06:03:33;3.13;;;2.90;;
18651;SDS011;9455;54.302;10.124;2023-07-31T06:05:59;3.27;;;3.00;;
18651;SDS011;9455;54.302;10.124;2023-07-31T06:08:26;9.67;;;3.30;;
18651;SDS011;9455;54.302;10.124;2023-07-31T06:10:53;3.57;;;3.27;;
18651;SDS011;9455;54.302;10.124;2023-07-31T06:13:19;4.63;;;3.27;;
18651;SDS011;9455;54.302;10.124;2023-07-31T06:15:46;6.03;;;3.07;;
18651;SDS011;9455;54.302;10.124;2023-07-31T06:18:14;3.27;;;2.70;;
18651;SDS011;9455;54.302;10.124;2023-07-31T06:20:40;6.10;;;2.67;;
18651;SDS011;9455;54.302;10.124;2023-07-31T06:23:07;5.93;;;2.40;;
18651;SDS011;9455;54.302;10.124;2023-07-31T06:25:34;4.03;;;2.77;;
18651;SDS011;9455;54.302;10.124;2023-07-31T06:28:00;3.43;;;2.60;;
18651;SDS011;9455;54.302;10.124;2023-07-31T06:30:27;3.37;;;2.73;;
18651;SDS011;9455;54.302;10.124;2023-07-31T06:32:53;3.30;;;3.00;;
18651;SDS011;9455;54.302;10.124;2023-07-31T06:35:21;4.00;;;2.57;;
18651;SDS011;9455;54.302;10.124;2023-07-31T06:37:48;3.10;;;2.60;;
18651;SDS011;9455;54.302;10.124;2023-07-31T06:40:16;5.60;;;2.73;;
18651;SDS011;9455;54.302;10.124;2023-07-31T06:42:43;4.77;;;2.20;;
18651;SDS011;9455;54.302;10.124;2023-07-31T06:45:10;9.63;;;2.40;;
18651;SDS011;9455;54.302;10.124;2023-07-31T06:47:36;4.47;;;2.70;;
18651;SDS011;9455;54.302;10.124;2023-07-31T06:50:03;2.40;;;2.20;;
18651;SDS011;9455;54.302;10.124;2023-07-31T06:52:32;3.17;;;2.27;;
18651;SDS011;9455;54.302;10.124;2023-07-31T06:55:02;4.50;;;2.20;;
18651;SDS011;9455;54.302;10.124;2023-07-31T06:57:29;3.30;;;2.07;;
18651;SDS011;9455;54.302;10.124;2023-07-31T06:59:56;2.57;;;2.07;;
18651;SDS011;9455;54.302;10.124;2023-07-31T07:02:23;2.60;;;2.20;;
18651;SDS011;9455;54.302;10.124;2023-07-31T07:04:49;1.97;;;1.87;;
18651;SDS011;9455;54.302;10.124;2023-07-31T07:07:16;1.63;;;1.57;;
18651;SDS011;9455;54.302;10.124;2023-07-31T07:09:44;1.87;;;1.77;;
18651;SDS011;9455;54.302;10.124;2023-07-31T07:12:11;8.40;;;1.50;;
18651;SDS011;9455;54.302;10.124;2023-07-31T07:14:38;10.60;;;2.27;;
18651;SDS011;9455;54.302;10.124;2023-07-31T07:17:04;3.43;;;2.23;;
18651;SDS011;9455;54.302;10.124;2023-07-31T07:19:31;3.00;;;1.50;;
18651;SDS011;9455;54.302;10.124;2023-07-31T07:21:58;1.20;;;1.20;;
18651;SDS011;9455;54.302;10.124;2023-07-31T07:24:27;1.30;;;1.30;;
18651;SDS011;9455;54.302;10.124;2023-07-31T07:26:55;1.30;;;1.30;;
18651;SDS011;9455;54.302;10.124;2023-07-31T07:29:21;1.53;;;1.10;;
18651;SDS011;9455;54.302;10.124;2023-07-31T07:31:48;1.80;;;1.10;;
18651;SDS011;9455;54.302;10.124;2023-07-31T07:34:14;0.90;;;0.90;;
18651;SDS011;9455;54.302;10.124;2023-07-31T07:36:41;0.73;;;0.73;;
18651;SDS011;9455;54.302;10.124;2023-07-31T07:39:08;0.70;;;0.70;;
18651;SDS011;9455;54.302;10.124;2023-07-31T07:41:36;0.70;;;0.70;;
18651;SDS011;9455;54.302;10.124;2023-07-31T07:44:04;3.77;;;1.17;;
18651;SDS011;9455;54.302;10.124;2023-07-31T07:46:31;6.13;;;3.93;;
18651;SDS011;9455;54.302;10.124;2023-07-31T07:48:57;0.90;;;0.90;;
18651;SDS011;9455;54.302;10.124;2023-07-31T07:51:24;0.93;;;0.93;;
18651;SDS011;9455;54.302;10.124;2023-07-31T07:53:50;0.60;;;0.60;;
18651;SDS011;9455;54.302;10.124;2023-07-31T07:56:17;0.60;;;0.60;;
18651;SDS011;9455;54.302;10.124;2023-07-31T07:58:43;6.70;;;0.53;;
18651;SDS011;9455;54.302;10.124;2023-07-31T08:01:11;0.40;;;0.40;;
18651;SDS011;9455;54.302;10.124;2023-07-31T08:03:38;0.50;;;0.43;;
18651;SDS011;9455;54.302;10.124;2023-07-31T08:06:05;0.37;;;0.37;;
18651;SDS011;9455;54.302;10.124;2023-07-31T08:08:34;0.40;;;0.40;;
18651;SDS011;9455;54.302;10.124;2023-07-31T08:11:00;0.50;;;0.50;;
18651;SDS011;9455;54.302;10.124;2023-07-31T08:13:27;0.73;;;0.60;;
18651;SDS011;9455;54.302;10.124;2023-07-31T08:15:54;0.60;;;0.60;;
18651;SDS011;9455;54.302;10.124;2023-07-31T08:18:22;0.40;;;0.40;;
18651;SDS011;9455;54.302;10.124;2023-07-31T08:20:49;0.53;;;0.53;;
18651;SDS011;9455;54.302;10.124;2023-07-31T08:23:15;0.50;;;0.50;;
18651;SDS011;9455;54.302;10.124;2023-07-31T08:25:42;0.73;;;0.60;;
18651;SDS011;9455;54.302;10.124;2023-07-31T08:28:08;0.30;;;0.30;;
18651;SDS011;9455;54.302;10.124;2023-07-31T08:30:35;0.33;;;0.33;;
18651;SDS011;9455;54.302;10.124;2023-07-31T08:33:02;1.93;;;0.83;;
18651;SDS011;9455;54.302;10.124;2023-07-31T08:35:30;2.20;;;0.50;;
18651;SDS011;9455;54.302;10.124;2023-07-31T08:37:57;12.43;;;0.73;;
18651;SDS011;9455;54.302;10.124;2023-07-31T08:40:23;0.40;;;0.33;;
18651;SDS011;9455;54.302;10.124;2023-07-31T08:42:55;0.50;;;0.50;;
18651;SDS011;9455;54.302;10.124;2023-07-31T08:45:27;0.50;;;0.50;;
18651;SDS011;9455;54.302;10.124;2023-07-31T08:47:54;0.67;;;0.67;;
18651;SDS011;9455;54.302;10.124;2023-07-31T08:50:22;0.77;;;0.53;;
18651;SDS011;9455;54.302;10.124;2023-07-31T08:52:51;0.50;;;0.50;;
18651;SDS011;9455;54.302;10.124;2023-07-31T08:55:18;0.30;;;0.30;;
18651;SDS011;9455;54.302;10.124;2023-07-31T08:57:48;1.00;;;0.63;;
18651;SDS011;9455;54.302;10.124;2023-07-31T09:00:17;0.63;;;0.60;;
18651;SDS011;9455;54.302;10.124;2023-07-31T09:02:45;0.57;;;0.57;;
18651;SDS011;9455;54.302;10.124;2023-07-31T09:05:14;0.67;;;0.67;;
18651;SDS011;9455;54.302;10.124;2023-07-31T09:07:43;1.97;;;0.67;;
18651;SDS011;9455;54.302;10.124;2023-07-31T09:10:14;0.50;;;0.50;;
18651;SDS011;9455;54.302;10.124;2023-07-31T09:12:41;1.13;;;0.73;;
18651;SDS011;9455;54.302;10.124;2023-07-31T09:15:09;0.87;;;0.87;;
18651;SDS011;9455;54.302;10.124;2023-07-31T09:17:37;1.07;;;0.60;;
18651;SDS011;9455;54.302;10.124;2023-07-31T09:20:12;0.70;;;0.70;;
18651;SDS011;9455;54.302;10.124;2023-07-31T09:22:40;0.90;;;0.90;;
18651;SDS011;9455;54.302;10.124;2023-07-31T09:25:19;0.60;;;0.60;;
18651;SDS011;9455;54.302;10.124;2023-07-31T09:27:47;2.83;;;0.83;;
18651;SDS011;9455;54.302;10.124;2023-07-31T09:30:15;1.60;;;0.87;;
18651;SDS011;9455;54.302;10.124;2023-07-31T09:32:42;0.80;;;0.80;;
18651;SDS011;9455;54.302;10.124;2023-07-31T09:35:18;0.83;;;0.80;;
18651;SDS011;9455;54.302;10.124;2023-07-31T09:37:48;0.77;;;0.77;;
18651;SDS011;9455;54.302;10.124;2023-07-31T09:40:26;2.60;;;0.80;;
18651;SDS011;9455;54.302;10.124;2023-07-31T09:42:56;2.20;;;0.80;;
18651;SDS011;9455;54.302;10.124;2023-07-31T09:45:24;2.37;;;1.00;;
18651;SDS011;9455;54.302;10.124;2023-07-31T09:47:51;4.83;;;0.90;;
18651;SDS011;9455;54.302;10.124;2023-07-31T09:50:19;0.80;;;0.80;;
18651;SDS011;9455;54.302;10.124;2023-07-31T09:52:46;1.83;;;1.00;;
18651;SDS011;9455;54.302;10.124;2023-07-31T09:55:13;1.00;;;0.90;;
18651;SDS011;9455;54.302;10.124;2023-07-31T09:57:41;2.57;;;0.90;;
18651;SDS011;9455;54.302;10.124;2023-07-31T10:00:09;1.37;;;0.90;;
18651;SDS011;9455;54.302;10.124;2023-07-31T10:02:36;1.07;;;0.80;;
18651;SDS011;9455;54.302;10.124;2023-07-31T10:05:04;0.83;;;0.70;;
18651;SDS011;9455;54.302;10.124;2023-07-31T10:07:34;0.93;;;0.93;;
18651;SDS011;9455;54.302;10.124;2023-07-31T10:10:03;0.67;;;0.67;;
18651;SDS011;9455;54.302;10.124;2023-07-31T10:12:31;1.00;;;1.00;;
18651;SDS011;9455;54.302;10.124;2023-07-31T10:15:01;1.50;;;1.10;;
18651;SDS011;9455;54.302;10.124;2023-07-31T10:17:28;1.60;;;1.13;;
18651;SDS011;9455;54.302;10.124;2023-07-31T10:19:56;0.80;;;0.80;;
18651;SDS011;9455;54.302;10.124;2023-07-31T10:22:24;1.07;;;1.07;;
18651;SDS011;9455;54.302;10.124;2023-07-31T10:24:52;2.20;;;1.70;;
18651;SDS011;9455;54.302;10.124;2023-07-31T10:27:20;1.17;;;1.13;;
18651;SDS011;9455;54.302;10.124;2023-07-31T10:29:47;1.10;;;0.97;;
18651;SDS011;9455;54.302;10.124;2023-07-31T10:32:16;1.10;;;1.10;;
18651;SDS011;9455;54.302;10.124;2023-07-31T10:34:43;1.20;;;1.10;;
18651;SDS011;9455;54.302;10.124;2023-07-31T10:37:20;1.90;;;1.07;;
18651;SDS011;9455;54.302;10.124;2023-07-31T10:39:55;0.93;;;0.90;;
18651;SDS011;9455;54.302;10.124;2023-07-31T10:42:27;1.77;;;1.07;;
18651;SDS011;9455;54.302;10.124;2023-07-31T10:44:58;1.30;;;1.20;;
18651;SDS011;9455;54.302;10.124;2023-07-31T10:47:26;1.40;;;1.17;;
18651;SDS011;9455;54.302;10.124;2023-07-31T10:49:59;1.33;;;1.23;;
18651;SDS011;9455;54.302;10.124;2023-07-31T10:52:37;0.93;;;0.93;;
18651;SDS011;9455;54.302;10.124;2023-07-31T10:55:24;9.67;;;4.30;;
18651;SDS011;9455;54.302;10.124;2023-07-31T10:57:52;2.50;;;1.53;;
18651;SDS011;9455;54.302;10.124;2023-07-31T11:00:20;0.90;;;0.90;;
18651;SDS011;9455;54.302;10.124;2023-07-31T11:02:59;1.73;;;1.00;;
18651;SDS011;9455;54.302;10.124;2023-07-31T11:05:46;1.83;;;1.10;;
18651;SDS011;9455;54.302;10.124;2023-07-31T11:08:15;1.40;;;1.30;;
18651;SDS011;9455;54.302;10.124;2023-07-31T11:10:47;0.83;;;0.83;;
18651;SDS011;9455;54.302;10.124;2023-07-31T11:13:15;0.83;;;0.83;;
18651;SDS011;9455;54.302;10.124;2023-07-31T11:15:41;1.50;;;1.30;;
18651;SDS011;9455;54.302;10.124;2023-07-31T11:18:09;2.97;;;1.10;;
18651;SDS011;9455;54.302;10.124;2023-07-31T11:20:37;1.10;;;0.97;;
18651;SDS011;9455;54.302;10.124;2023-07-31T11:23:06;1.20;;;1.10;;
18651;SDS011;9455;54.302;10.124;2023-07-31T11:25:35;1.37;;;1.00;;
18651;SDS011;9455;54.302;10.124;2023-07-31T11:28:06;3.20;;;1.30;;
18651;SDS011;9455;54.302;10.124;2023-07-31T11:30:33;1.30;;;1.13;;
18651;SDS011;9455;54.302;10.124;2023-07-31T11:33:01;1.00;;;1.00;;
18651;SDS011;9455;54.302;10.124;2023-07-31T11:35:30;0.90;;;0.90;;
18651;SDS011;9455;54.302;10.124;2023-07-31T11:37:58;1.10;;;1.00;;
18651;SDS011;9455;54.302;10.124;2023-07-31T11:40:25;0.80;;;0.80;;
18651;SDS011;9455;54.302;10.124;2023-07-31T11:42:54;6.93;;;1.20;;
18651;SDS011;9455;54.302;10.124;2023-07-31T11:45:24;1.07;;;1.07;;
18651;SDS011;9455;54.302;10.124;2023-07-31T11:47:51;1.23;;;1.23;;
18651;SDS011;9455;54.302;10.124;2023-07-31T11:50:18;1.10;;;1.10;;
18651;SDS011;9455;54.302;10.124;2023-07-31T11:52:46;0.90;;;0.90;;
18651;SDS011;9455;54.302;10.124;2023-07-31T11:55:16;2.23;;;1.30;;
18651;SDS011;9455;54.302;10.124;2023-07-31T11:57:43;1.20;;;1.20;;
18651;SDS011;9455;54.302;10.124;2023-07-31T12:00:11;1.20;;;1.20;;
18651;SDS011;9455;54.302;10.124;2023-07-31T12:02:39;0.97;;;0.97;;
18651;SDS011;9455;54.302;10.124;2023-07-31T12:05:06;1.83;;;1.27;;
18651;SDS011;9455;54.302;10.124;2023-07-31T12:07:43;3.93;;;1.13;;
18651;SDS011;9455;54.302;10.124;2023-07-31T12:10:27;0.83;;;0.83;;
18651;SDS011;9455;54.302;10.124;2023-07-31T12:12:55;1.13;;;1.13;;
18651;SDS011;9455;54.302;10.124;2023-07-31T12:15:29;2.73;;;1.47;;
18651;SDS011;9455;54.302;10.124;2023-07-31T12:17:58;1.23;;;1.20;;
18651;SDS011;9455;54.302;10.124;2023-07-31T12:20:24;1.40;;;1.30;;
18651;SDS011;9455;54.302;10.124;2023-07-31T12:22:52;1.57;;;1.47;;
18651;SDS011;9455;54.302;10.124;2023-07-31T12:25:22;1.60;;;1.37;;
18651;SDS011;9455;54.302;10.124;2023-07-31T12:27:50;1.20;;;1.20;;
18651;SDS011;9455;54.302;10.124;2023-07-31T12:30:26;2.10;;;1.40;;
18651;SDS011;9455;54.302;10.124;2023-07-31T12:32:53;1.53;;;1.43;;
18651;SDS011;9455;54.302;10.124;2023-07-31T12:35:20;1.63;;;1.53;;
18651;SDS011;9455;54.302;10.124;2023-07-31T12:37:47;1.40;;;1.30;;
18651;SDS011;9455;54.302;10.124;2023-07-31T12:40:15;3.53;;;1.73;;
18651;SDS011;9455;54.302;10.124;2023-07-31T12:42:41;9.37;;;1.40;;
18651;SDS011;9455;54.302;10.124;2023-07-31T12:45:08;1.10;;;1.10;;
18651;SDS011;9455;54.302;10.124;2023-07-31T12:47:35;1.90;;;1.53;;
18651;SDS011;9455;54.302;10.124;2023-07-31T12:50:02;3.33;;;1.40;;
18651;SDS011;9455;54.302;10.124;2023-07-31T12:52:28;1.47;;;1.00;;
18651;SDS011;9455;54.302;10.124;2023-07-31T12:54:55;1.20;;;1.20;;
18651;SDS011;9455;54.302;10.124;2023-07-31T12:57:23;1.67;;;1.00;;
18651;SDS011;9455;54.302;10.124;2023-07-31T12:59:49;1.10;;;1.10;;
18651;SDS011;9455;54.302;10.124;2023-07-31T13:02:16;4.37;;;1.00;;
18651;SDS011;9455;54.302;10.124;2023-07-31T13:04:42;1.47;;;1.37;;
18651;SDS011;9455;54.302;10.124;2023-07-31T13:07:09;3.00;;;1.10;;
18651;SDS011;9455;54.302;10.124;2023-07-31T13:09:36;1.07;;;1.07;;
18651;SDS011;9455;54.302;10.124;2023-07-31T13:12:02;7.40;;;0.83;;
18651;SDS011;9455;54.302;10.124;2023-07-31T13:14:31;4.93;;;0.90;;
18651;SDS011;9455;54.302;10.124;2023-07-31T13:16:57;1.20;;;0.93;;
18651;SDS011;9455;54.302;10.124;2023-07-31T13:19:24;0.70;;;0.70;;
18651;SDS011;9455;54.302;10.124;2023-07-31T13:21:51;2.80;;;0.67;;
18651;SDS011;9455;54.302;10.124;2023-07-31T13:24:17;0.90;;;0.90;;
18651;SDS011;9455;54.302;10.124;2023-07-31T13:26:44;0.60;;;0.60;;
18651;SDS011;9455;54.302;10.124;2023-07-31T13:29:10;0.70;;;0.70;;
18651;SDS011;9455;54.302;10.124;2023-07-31T13:31:38;0.70;;;0.70;;
18651;SDS011;9455;54.302;10.124;2023-07-31T13:34:05;0.60;;;0.60;;
18651;SDS011;9455;54.302;10.124;2023-07-31T13:36:31;2.00;;;0.90;;
18651;SDS011;9455;54.302;10.124;2023-07-31T13:38:59;1.90;;;0.90;;
18651;SDS011;9455;54.302;10.124;2023-07-31T13:41:26;0.50;;;0.50;;
18651;SDS011;9455;54.302;10.124;2023-07-31T13:43:52;0.77;;;0.77;;
18651;SDS011;9455;54.302;10.124;2023-07-31T13:46:19;1.07;;;1.00;;
18651;SDS011;9455;54.302;10.124;2023-07-31T13:48:47;0.80;;;0.80;;
18651;SDS011;9455;54.302;10.124;2023-07-31T13:51:13;1.87;;;1.00;;
18651;SDS011;9455;54.302;10.124;2023-07-31T13:53:40;0.90;;;0.90;;
18651;SDS011;9455;54.302;10.124;2023-07-31T13:56:06;1.07;;;0.93;;
18651;SDS011;9455;54.302;10.124;2023-07-31T13:58:33;0.60;;;0.60;;
18651;SDS011;9455;54.302;10.124;2023-07-31T14:01:00;0.50;;;0.50;;
18651;SDS011;9455;54.302;10.124;2023-07-31T14:03:26;2.87;;;0.80;;
18651;SDS011;9455;54.302;10.124;2023-07-31T14:05:54;0.70;;;0.70;;
18651;SDS011;9455;54.302;10.124;2023-07-31T14:08:21;0.50;;;0.50;;
18651;SDS011;9455;54.302;10.124;2023-07-31T14:10:48;0.63;;;0.50;;
18651;SDS011;9455;54.302;10.124;2023-07-31T14:13:14;1.07;;;0.53;;
18651;SDS011;9455;54.302;10.124;2023-07-31T14:15:41;0.43;;;0.43;;
18651;SDS011;9455;54.302;10.124;2023-07-31T14:18:08;0.50;;;0.37;;
18651;SDS011;9455;54.302;10.124;2023-07-31T14:20:35;0.80;;;0.60;;
18651;SDS011;9455;54.302;10.124;2023-07-31T14:23:03;0.40;;;0.40;;
18651;SDS011;9455;54.302;10.124;2023-07-31T14:25:30;1.33;;;0.47;;
18651;SDS011;9455;54.302;10.124;2023-07-31T14:27:56;0.50;;;0.50;;
18651;SDS011;9455;54.302;10.124;2023-07-31T14:30:23;0.40;;;0.40;;
18651;SDS011;9455;54.302;10.124;2023-07-31T14:32:49;0.87;;;0.70;;
18651;SDS011;9455;54.302;10.124;2023-07-31T14:35:16;0.60;;;0.60;;
18651;SDS011;9455;54.302;10.124;2023-07-31T14:37:45;2.00;;;0.50;;
18651;SDS011;9455;54.302;10.124;2023-07-31T14:40:15;0.60;;;0.60;;
18651;SDS011;9455;54.302;10.124;2023-07-31T14:42:41;0.67;;;0.67;;
18651;SDS011;9455;54.302;10.124;2023-07-31T14:45:08;0.40;;;0.40;;
18651;SDS011;9455;54.302;10.124;2023-07-31T14:47:36;1.07;;;0.43;;
18651;SDS011;9455;54.302;10.124;2023-07-31T14:50:03;0.50;;;0.40;;
18651;SDS011;9455;54.302;10.124;2023-07-31T14:52:30;0.40;;;0.40;;